»·PEaware :: N881PF KGEG-KGEG

N881PF :: KGEG-KGEG

FLIGHT INFORMATION

Flight Status: Arrived
Operator: Privately registered:
United States
More flights under this callsign
Pilot: Northwest Flight Service (22302)
Aircraft: CIRRUS SR-20
(SR20)
More flights by this aircraft type
Origin: KGEG Spokane Intl
United States
Destination: KGEG Spokane Intl
United States
More flights between these airports :: More routes between these airports
Route: +GEG
File this flight plan on PilotEdge
Remarks:
Altitude:
(Current/Filed)
6,000ft
Speed:
(Current/Filed)
0kts
Departed: 19-Oct-19 12:12 PM
Arrived: 19-Oct-19 01:36 PM
Distance/Time
Traveled:
0nm/1:24
Distance/Time
To Go:
Arrived

Flight Plot

Page will automatically refresh every two minutes.


Map Options




Map Legend


Flown Route
Filed Route
Departure Airport
Arrival Airport
Navaid (VOR, NDB)
Fix

Horizontal Profiles

Position Reports

Time Latitude Longitude Heading Altitude Ground
Speed
19-Oct-19 11:49 47.623616 -117.520513 271 2377ft 0kts
19-Oct-19 11:50 47.623616 -117.520513 271 2377ft 0kts
19-Oct-19 11:51 47.623616 -117.520513 271 2377ft 0kts
19-Oct-19 11:52 47.623616 -117.520513 271 2377ft 0kts
19-Oct-19 11:53 47.623616 -117.520513 271 2377ft 0kts
19-Oct-19 11:53 47.623616 -117.520513 271 2377ft 0kts
19-Oct-19 11:55 47.623616 -117.520513 271 2377ft 0kts
19-Oct-19 11:56 47.623616 -117.520513 271 2377ft 0kts
19-Oct-19 11:57 47.623616 -117.520513 271 2377ft 0kts
19-Oct-19 11:57 47.623616 -117.520513 271 2377ft 0kts
19-Oct-19 11:59 47.623616 -117.520513 271 2377ft 0kts
19-Oct-19 12:00 47.623616 -117.520513 271 2377ft 0kts
19-Oct-19 12:00 47.623616 -117.520513 271 2377ft 0kts
19-Oct-19 12:01 47.623616 -117.520513 271 2377ft 0kts
19-Oct-19 12:02 47.624199 -117.522252 299 2377ft 7kts
19-Oct-19 12:03 47.625381 -117.523580 45 2377ft 10kts
19-Oct-19 12:04 47.628047 -117.519542 44 2377ft 14kts
19-Oct-19 12:05 47.630212 -117.516953 301 2377ft 6kts
19-Oct-19 12:06 47.630229 -117.516995 301 2377ft 0kts
19-Oct-19 12:07 47.630229 -117.516995 301 2377ft 0kts
19-Oct-19 12:08 47.630229 -117.516995 301 2377ft 0kts
19-Oct-19 12:09 47.630229 -117.516995 301 2377ft 0kts
19-Oct-19 12:10 47.630229 -117.516995 301 2377ft 0kts
19-Oct-19 12:11 47.627495 -117.524004 228 2377ft 77kts
19-Oct-19 12:12 47.616216 -117.541650 225 2874ft 86kts
19-Oct-19 12:13 47.596966 -117.569274 225 3487ft 106kts
19-Oct-19 12:14 47.574186 -117.594481 168 4279ft 104kts
19-Oct-19 12:15 47.563896 -117.558429 97 5003ft 102kts
19-Oct-19 12:16 47.560816 -117.517150 70 5711ft 102kts
19-Oct-19 12:17 47.581074 -117.481989 49 6002ft 132kts
19-Oct-19 12:18 47.607355 -117.438524 49 6001ft 149kts
19-Oct-19 12:19 47.635166 -117.392850 48 6000ft 153kts
19-Oct-19 12:20 47.663347 -117.346101 48 6000ft 153kts
19-Oct-19 12:21 47.691735 -117.299117 50 5999ft 154kts
19-Oct-19 12:22 47.726525 -117.302728 320 5821ft 140kts
19-Oct-19 12:23 47.742213 -117.339362 251 5259ft 94kts
19-Oct-19 12:24 47.728047 -117.372223 224 4776ft 99kts
19-Oct-19 12:25 47.708340 -117.401872 225 4283ft 104kts
19-Oct-19 12:26 47.688934 -117.431171 226 3957ft 89kts
19-Oct-19 12:27 47.667290 -117.463700 225 3440ft 132kts
19-Oct-19 12:28 47.644076 -117.498772 227 2779ft 113kts
19-Oct-19 12:29 47.623488 -117.530392 229 2889ft 113kts
19-Oct-19 12:30 47.604319 -117.560217 221 3927ft 88kts
19-Oct-19 12:31 47.586239 -117.597334 226 4501ft 104kts
19-Oct-19 12:32 47.568212 -117.625949 225 5405ft 88kts
19-Oct-19 12:33 47.550285 -117.654980 225 5075ft 114kts
19-Oct-19 12:34 47.526223 -117.691648 212 5078ft 140kts
19-Oct-19 12:35 47.518262 -117.656192 65 5052ft 143kts
19-Oct-19 12:36 47.548625 -117.628809 346 5051ft 151kts
19-Oct-19 12:37 47.561852 -117.595044 120 5050ft 149kts
19-Oct-19 12:38 47.534182 -117.609385 230 5054ft 155kts
19-Oct-19 12:39 47.510293 -117.662291 249 5049ft 156kts
19-Oct-19 12:40 47.531947 -117.664051 51 5056ft 148kts
19-Oct-19 12:41 47.560319 -117.621536 32 5050ft 146kts
19-Oct-19 12:42 47.595033 -117.590425 32 5050ft 145kts
19-Oct-19 12:43 47.629442 -117.559365 32 5050ft 145kts
19-Oct-19 12:44 47.663881 -117.528278 31 5051ft 145kts
19-Oct-19 12:45 47.698368 -117.497122 31 5049ft 145kts
19-Oct-19 12:46 47.732476 -117.466338 32 5050ft 145kts
19-Oct-19 12:47 47.766835 -117.435397 32 5050ft 145kts
19-Oct-19 12:48 47.782268 -117.391603 129 4970ft 147kts
19-Oct-19 12:49 47.754368 -117.357069 184 4447ft 129kts
19-Oct-19 12:50 47.723555 -117.378706 225 4001ft 116kts
19-Oct-19 12:51 47.706348 -117.404054 217 3991ft 83kts
19-Oct-19 12:52 47.687327 -117.435552 233 4116ft 121kts
19-Oct-19 12:53 47.664393 -117.468579 225 3327ft 104kts
19-Oct-19 12:54 47.646437 -117.495692 226 2820ft 83kts
19-Oct-19 12:55 47.631176 -117.520183 228 3116ft 75kts
19-Oct-19 12:56 47.613752 -117.548625 229 3696ft 109kts
19-Oct-19 12:57 47.596269 -117.588618 230 3969ft 143kts
19-Oct-19 12:58 47.569804 -117.630772 221 4197ft 157kts
19-Oct-19 12:59 47.538246 -117.675426 232 4192ft 157kts
19-Oct-19 13:00 47.501922 -117.697350 169 4193ft 153kts
19-Oct-19 13:01 47.460193 -117.698051 204 4205ft 151kts
19-Oct-19 13:02 47.438975 -117.745565 258 4176ft 154kts
19-Oct-19 13:03 47.464881 -117.775861 22 4174ft 146kts
19-Oct-19 13:04 47.498206 -117.743236 45 4173ft 147kts
19-Oct-19 13:05 47.526582 -117.696504 49 3808ft 159kts
19-Oct-19 13:06 47.548477 -117.656789 49 3767ft 85kts
19-Oct-19 13:07 47.564730 -117.627337 48 3780ft 98kts
19-Oct-19 13:08 47.584725 -117.594203 46 3499ft 119kts
19-Oct-19 13:09 47.606293 -117.558580 50 2985ft 114kts
19-Oct-19 13:10 47.624385 -117.528483 46 3882ft 71kts
19-Oct-19 13:11 47.649080 -117.530610 306 4298ft 114kts
19-Oct-19 13:12 47.631615 -117.578871 192 3824ft 170kts
19-Oct-19 13:13 47.593866 -117.587202 212 4011ft 160kts
19-Oct-19 13:14 47.559910 -117.621761 190 4339ft 157kts
19-Oct-19 13:15 47.518402 -117.647830 210 3992ft 161kts
19-Oct-19 13:16 47.530519 -117.673638 26 4064ft 143kts
19-Oct-19 13:17 47.560172 -117.634171 56 4024ft 143kts
19-Oct-19 13:18 47.562218 -117.583645 124 3853ft 149kts
19-Oct-19 13:19 47.529844 -117.595453 221 3685ft 138kts
19-Oct-19 13:20 47.521149 -117.634706 344 3737ft 114kts
19-Oct-19 13:21 47.546853 -117.616511 30 3836ft 106kts
19-Oct-19 13:22 47.567250 -117.593847 42 4173ft 87kts
19-Oct-19 13:23 47.592914 -117.582345 13 4626ft 101kts
19-Oct-19 13:24 47.622499 -117.572242 13 4985ft 131kts
19-Oct-19 13:25 47.660926 -117.559112 13 4984ft 149kts
19-Oct-19 13:26 47.695382 -117.528691 49 4982ft 151kts
19-Oct-19 13:27 47.721985 -117.483276 49 4982ft 146kts
19-Oct-19 13:28 47.748282 -117.438501 49 4981ft 144kts
19-Oct-19 13:29 47.771938 -117.392113 86 4977ft 143kts
19-Oct-19 13:30 47.738941 -117.364604 179 4543ft 153kts
19-Oct-19 13:31 47.709027 -117.400789 225 4027ft 135kts
19-Oct-19 13:32 47.686381 -117.435025 225 3905ft 116kts
19-Oct-19 13:33 47.661911 -117.471878 225 3274ft 129kts
19-Oct-19 13:34 47.639518 -117.505577 227 2656ft 115kts
19-Oct-19 13:35 47.624845 -117.528019 217 2377ft 9kts
19-Oct-19 13:36 47.620203 -117.532478 170 2377ft 0kts
19-Oct-19 13:37 47.618297 -117.534267 225 2377ft 21kts
19-Oct-19 13:38 47.619357 -117.530746 6 2377ft 17kts
19-Oct-19 13:39 47.621078 -117.528818 144 2377ft 11kts

Navigation Log

Ident Type
Flight plan parsing failed, navigation log unavailable